Oriskany Falls, New York
Current Conditions -  °F | °C
As of 8:53 AM on Thursday 18 Dec 2014 (Local Time) from KRME Reporting Station
Moderate Snow Moderate Snow  
Wind Chill: 19°   Ceiling: 800
Heat Index: 30°   Visibility: 0.5mi
Dew Point: 29°   Wind: 15mph
Humidity: 96%   Direction: 280°W
Pressure: 29.99"   Gusts: NA
Location:  42.94°N, 75.46°W
Report Text: KRME 181353Z 28013KT 1/2SM SN FZFG OVC008 M01/M02 A2999 RMK AO2 SLP160 P0000 T10111017 RVRNO
Loading
Personal Weather Stations






























Interactive Weather Map New forecast layout! Learn more

10-Day Weather Forecast

Advertisements
Track Severe Weather on mobile